UTA469 USRR-ULLI
Flight info
| Callsign | UTA469 |
|---|---|
| Flight time | 4h 5m |
| Altitude | 34000 |
| Route | OGIKA M59 SORLI P989 NETLU T756 OSKEL/K0809F360 T756 ODNUS L870 ADLIN T242 AMDEN P979 BEPOL |
| Aircraft | B735/M-SDE2E3FHIRW/S |
Departure
| Time | 2026-05-08 14:48 |
|---|---|
| Airport | Surgut International Airport (USRR) |
Arrival
| Time | 2026-05-08 18:53 |
|---|---|
| Airport | Pulkovo Airport (ULLI) |
| Time | Latitude | Longitude | Altitude | Speed | Heading |
|---|---|---|---|---|---|
| 2026-05-08 14:14 | 61.34118 | 73.40238 | 187 ft | 0 kts | 180° |
| 2026-05-08 14:25 | 61.34119 | 73.40238 | 186 ft | 0 kts | 180° |
| 2026-05-08 14:35 | 61.34118 | 73.40238 | 186 ft | 0 kts | 180° |
| 2026-05-08 14:41 | 61.34098 | 73.40239 | 186 ft | 4 kts | 178° |
| 2026-05-08 14:41 | 61.34072 | 73.40190 | 185 ft | 6 kts | 259° |
| 2026-05-08 14:41 | 61.34096 | 73.40121 | 185 ft | 6 kts | 341° |
| 2026-05-08 14:41 | 61.34128 | 73.40120 | 186 ft | 3 kts | 1° |
| 2026-05-08 14:42 | 61.34147 | 73.40120 | 187 ft | 2 kts | 358° |
| 2026-05-08 14:42 | 61.34162 | 73.40114 | 187 ft | 2 kts | 335° |
| 2026-05-08 14:42 | 61.34178 | 73.40067 | 187 ft | 6 kts | 282° |
| 2026-05-08 14:42 | 61.34178 | 73.39937 | 186 ft | 10 kts | 270° |
| 2026-05-08 14:43 | 61.34174 | 73.39751 | 183 ft | 15 kts | 262° |
| 2026-05-08 14:43 | 61.34176 | 73.39548 | 180 ft | 15 kts | 272° |
| 2026-05-08 14:43 | 61.34175 | 73.39319 | 177 ft | 15 kts | 267° |
| 2026-05-08 14:43 | 61.34175 | 73.39100 | 174 ft | 15 kts | 268° |
| 2026-05-08 14:44 | 61.34174 | 73.38861 | 171 ft | 17 kts | 269° |
| 2026-05-08 14:44 | 61.34172 | 73.38618 | 169 ft | 13 kts | 268° |
| 2026-05-08 14:44 | 61.34170 | 73.38418 | 163 ft | 12 kts | 269° |
| 2026-05-08 14:44 | 61.34170 | 73.38271 | 160 ft | 5 kts | 278° |
| 2026-05-08 14:45 | 61.34195 | 73.38200 | 160 ft | 5 kts | 321° |
| 2026-05-08 14:45 | 61.34215 | 73.38165 | 161 ft | 2 kts | 320° |
| 2026-05-08 14:45 | 61.34224 | 73.38151 | 162 ft | 0 kts | 322° |
| 2026-05-08 14:45 | 61.34233 | 73.38135 | 162 ft | 4 kts | 321° |
| 2026-05-08 14:46 | 61.34278 | 73.38062 | 162 ft | 11 kts | 325° |
| 2026-05-08 14:46 | 61.34356 | 73.38031 | 162 ft | 9 kts | 356° |
| 2026-05-08 14:46 | 61.34376 | 73.38042 | 162 ft | 3 kts | 50° |
| 2026-05-08 14:46 | 61.34381 | 73.38075 | 163 ft | 0 kts | 89° |
| 2026-05-08 14:47 | 61.34381 | 73.38078 | 163 ft | 0 kts | 88° |
| 2026-05-08 14:47 | 61.34381 | 73.38102 | 163 ft | 6 kts | 89° |
| 2026-05-08 14:47 | 61.34383 | 73.38443 | 170 ft | 51 kts | 89° |
| 2026-05-08 14:47 | 61.34386 | 73.39653 | 185 ft | 111 kts | 91° |
| 2026-05-08 14:48 | 61.34394 | 73.41563 | 326 ft | 144 kts | 90° |
| 2026-05-08 14:48 | 61.34390 | 73.43668 | 753 ft | 149 kts | 87° |
| 2026-05-08 14:48 | 61.34483 | 73.45879 | 1159 ft | 156 kts | 70° |
| 2026-05-08 14:48 | 61.35147 | 73.47699 | 1424 ft | 173 kts | 26° |
| 2026-05-08 14:49 | 61.36353 | 73.48646 | 1626 ft | 199 kts | 12° |
| 2026-05-08 14:49 | 61.37807 | 73.48765 | 1919 ft | 224 kts | 350° |
| 2026-05-08 14:49 | 61.39326 | 73.47500 | 2279 ft | 245 kts | 323° |
| 2026-05-08 14:49 | 61.40449 | 73.44808 | 2914 ft | 253 kts | 295° |
| 2026-05-08 14:50 | 61.40953 | 73.41283 | 3691 ft | 256 kts | 283° |
| 2026-05-08 14:50 | 61.41359 | 73.37672 | 4494 ft | 256 kts | 282° |
| 2026-05-08 14:50 | 61.41768 | 73.34036 | 5276 ft | 258 kts | 283° |
| 2026-05-08 14:50 | 61.42181 | 73.30385 | 6036 ft | 260 kts | 283° |
| 2026-05-08 14:51 | 61.42624 | 73.26743 | 6773 ft | 262 kts | 290° |
| 2026-05-08 14:51 | 61.43650 | 73.23640 | 7488 ft | 264 kts | 311° |
| 2026-05-08 14:51 | 61.44908 | 73.20812 | 8207 ft | 267 kts | 311° |
| 2026-05-08 14:51 | 61.46171 | 73.17976 | 8919 ft | 269 kts | 311° |
| 2026-05-08 14:52 | 61.47436 | 73.15138 | 9651 ft | 270 kts | 310° |
| 2026-05-08 14:52 | 61.50046 | 73.09274 | 10504 ft | 295 kts | 310° |
| 2026-05-08 14:52 | 61.51505 | 73.05992 | 10831 ft | 311 kts | 310° |
| 2026-05-08 14:53 | 61.52987 | 73.02662 | 11536 ft | 313 kts | 309° |
| 2026-05-08 14:53 | 61.54445 | 72.99383 | 12366 ft | 311 kts | 309° |
| 2026-05-08 14:53 | 61.55929 | 72.96034 | 13129 ft | 311 kts | 308° |
| 2026-05-08 14:53 | 61.57388 | 72.92733 | 13823 ft | 313 kts | 308° |
| 2026-05-08 14:54 | 61.58876 | 72.89367 | 14527 ft | 314 kts | 308° |
| 2026-05-08 14:54 | 61.60356 | 72.86020 | 15220 ft | 315 kts | 308° |
| 2026-05-08 14:54 | 61.61837 | 72.82658 | 15875 ft | 316 kts | 308° |
| 2026-05-08 14:54 | 61.63320 | 72.79290 | 16518 ft | 318 kts | 307° |
| 2026-05-08 14:55 | 61.64837 | 72.75837 | 17169 ft | 319 kts | 307° |
| 2026-05-08 14:55 | 61.66333 | 72.72421 | 17793 ft | 320 kts | 307° |
| 2026-05-08 14:55 | 61.67835 | 72.68990 | 18397 ft | 321 kts | 307° |
| 2026-05-08 14:55 | 61.69334 | 72.65560 | 18963 ft | 323 kts | 307° |
| 2026-05-08 14:56 | 61.70863 | 72.62060 | 19540 ft | 324 kts | 307° |
| 2026-05-08 14:56 | 61.72402 | 72.58526 | 20065 ft | 327 kts | 306° |
| 2026-05-08 14:56 | 61.73942 | 72.54986 | 20632 ft | 328 kts | 307° |
| 2026-05-08 14:56 | 61.75479 | 72.51453 | 21163 ft | 329 kts | 306° |
| 2026-05-08 14:57 | 61.77028 | 72.47881 | 21674 ft | 331 kts | 306° |
| 2026-05-08 14:57 | 61.78424 | 72.44124 | 22199 ft | 324 kts | 292° |
| 2026-05-08 14:57 | 61.79142 | 72.39641 | 22651 ft | 323 kts | 285° |
| 2026-05-08 14:57 | 61.79784 | 72.35067 | 23121 ft | 325 kts | 285° |
| 2026-05-08 14:58 | 61.80446 | 72.30488 | 23582 ft | 327 kts | 285° |
| 2026-05-08 14:58 | 61.81123 | 72.25862 | 24082 ft | 328 kts | 285° |
| 2026-05-08 14:58 | 61.81801 | 72.21255 | 24555 ft | 330 kts | 285° |
| 2026-05-08 14:58 | 61.82481 | 72.16640 | 25032 ft | 330 kts | 285° |
| 2026-05-08 14:59 | 61.83167 | 72.11997 | 25472 ft | 332 kts | 285° |
| 2026-05-08 14:59 | 61.84549 | 72.02631 | 26315 ft | 335 kts | 286° |
| 2026-05-08 14:59 | 61.85253 | 71.97854 | 26721 ft | 337 kts | 286° |
| 2026-05-08 15:00 | 61.85945 | 71.93131 | 27107 ft | 338 kts | 286° |
| 2026-05-08 15:00 | 61.86640 | 71.88383 | 27484 ft | 340 kts | 286° |
| 2026-05-08 15:00 | 61.87348 | 71.83530 | 27907 ft | 340 kts | 286° |
| 2026-05-08 15:00 | 61.88039 | 71.78762 | 28421 ft | 338 kts | 286° |
| 2026-05-08 15:01 | 61.88718 | 71.74067 | 28933 ft | 335 kts | 286° |
| 2026-05-08 15:01 | 61.89400 | 71.69360 | 29444 ft | 332 kts | 286° |
| 2026-05-08 15:01 | 61.90077 | 71.64669 | 29925 ft | 329 kts | 286° |
| 2026-05-08 15:01 | 61.90738 | 71.60059 | 30353 ft | 328 kts | 286° |
| 2026-05-08 15:02 | 61.91404 | 71.55408 | 30644 ft | 330 kts | 286° |
| 2026-05-08 15:02 | 61.92068 | 71.50764 | 30892 ft | 332 kts | 285° |
| 2026-05-08 15:02 | 61.92733 | 71.46082 | 31176 ft | 334 kts | 285° |
| 2026-05-08 15:02 | 61.93411 | 71.41327 | 31489 ft | 334 kts | 285° |
| 2026-05-08 15:03 | 61.94061 | 71.36640 | 31780 ft | 335 kts | 285° |
| 2026-05-08 15:03 | 61.94708 | 71.31851 | 32060 ft | 336 kts | 284° |
| 2026-05-08 15:03 | 61.95368 | 71.27031 | 32346 ft | 337 kts | 284° |
| 2026-05-08 15:03 | 61.96037 | 71.22217 | 32661 ft | 337 kts | 284° |
| 2026-05-08 15:04 | 61.96699 | 71.17467 | 32949 ft | 338 kts | 284° |
| 2026-05-08 15:04 | 61.97376 | 71.12623 | 33202 ft | 339 kts | 284° |
| 2026-05-08 15:04 | 61.98043 | 71.07832 | 33455 ft | 340 kts | 284° |
| 2026-05-08 15:04 | 61.98714 | 71.03009 | 33700 ft | 341 kts | 284° |
| 2026-05-08 15:05 | 61.99390 | 70.98141 | 33935 ft | 342 kts | 284° |
| 2026-05-08 15:05 | 61.99983 | 70.93250 | 34063 ft | 345 kts | 281° |
| 2026-05-08 15:05 | 62.01121 | 70.83128 | 34047 ft | 350 kts | 282° |
| 2026-05-08 15:06 | 62.02272 | 70.73026 | 34050 ft | 350 kts | 282° |
| 2026-05-08 15:06 | 62.03426 | 70.62885 | 34048 ft | 350 kts | 282° |
| 2026-05-08 15:07 | 62.04564 | 70.52766 | 34048 ft | 350 kts | 282° |
| 2026-05-08 15:07 | 62.05701 | 70.42619 | 34044 ft | 351 kts | 282° |
| 2026-05-08 15:08 | 62.06646 | 70.34141 | 34046 ft | 352 kts | 281° |
| 2026-05-08 15:08 | 62.07952 | 70.22272 | 34051 ft | 351 kts | 281° |
| 2026-05-08 15:09 | 62.09072 | 70.12114 | 34048 ft | 351 kts | 281° |
| 2026-05-08 15:09 | 62.10183 | 70.01952 | 34043 ft | 351 kts | 281° |
| 2026-05-08 15:10 | 62.11308 | 69.91746 | 34048 ft | 351 kts | 281° |
| 2026-05-08 15:10 | 62.12403 | 69.81530 | 34048 ft | 352 kts | 281° |
| 2026-05-08 15:11 | 62.13484 | 69.71350 | 34048 ft | 351 kts | 281° |
| 2026-05-08 15:11 | 62.14567 | 69.61087 | 34057 ft | 350 kts | 283° |
| 2026-05-08 15:12 | 62.15629 | 69.51006 | 34043 ft | 345 kts | 282° |
| 2026-05-08 15:12 | 62.16647 | 69.41156 | 34045 ft | 345 kts | 283° |
| 2026-05-08 15:13 | 62.17689 | 69.31033 | 34033 ft | 346 kts | 282° |
| 2026-05-08 15:13 | 62.18721 | 69.20968 | 34050 ft | 346 kts | 281° |
| 2026-05-08 15:14 | 62.19735 | 69.10952 | 34047 ft | 344 kts | 282° |
| 2026-05-08 15:14 | 62.20750 | 69.00916 | 34049 ft | 344 kts | 281° |
| 2026-05-08 15:15 | 62.21747 | 68.90928 | 34049 ft | 343 kts | 281° |
| 2026-05-08 15:15 | 62.22747 | 68.80862 | 34048 ft | 342 kts | 281° |
| 2026-05-08 15:16 | 62.23727 | 68.70902 | 34048 ft | 341 kts | 281° |
| 2026-05-08 15:16 | 62.24693 | 68.60948 | 34048 ft | 340 kts | 281° |
| 2026-05-08 15:17 | 62.25644 | 68.51109 | 34047 ft | 339 kts | 281° |
| 2026-05-08 15:17 | 62.26587 | 68.41309 | 34046 ft | 338 kts | 281° |
| 2026-05-08 15:18 | 62.27529 | 68.31509 | 34034 ft | 338 kts | 280° |
| 2026-05-08 15:18 | 62.28441 | 68.21859 | 34050 ft | 337 kts | 280° |
| 2026-05-08 15:19 | 62.29363 | 68.11948 | 34046 ft | 336 kts | 280° |
| 2026-05-08 15:19 | 62.30270 | 68.02109 | 34046 ft | 337 kts | 279° |
| 2026-05-08 15:20 | 62.31181 | 67.92177 | 34048 ft | 337 kts | 279° |
| 2026-05-08 15:20 | 62.32080 | 67.82318 | 34048 ft | 337 kts | 280° |
| 2026-05-08 15:21 | 62.32979 | 67.72416 | 34044 ft | 337 kts | 278° |
| 2026-05-08 15:21 | 62.33672 | 67.62385 | 34045 ft | 339 kts | 278° |
| 2026-05-08 15:22 | 62.34483 | 67.52359 | 34047 ft | 340 kts | 279° |
| 2026-05-08 15:22 | 62.35342 | 67.42396 | 34048 ft | 341 kts | 279° |
| 2026-05-08 15:23 | 62.36216 | 67.32300 | 34036 ft | 342 kts | 278° |
| 2026-05-08 15:23 | 62.37094 | 67.22201 | 34050 ft | 342 kts | 279° |
| 2026-05-08 15:24 | 62.37970 | 67.12159 | 34047 ft | 343 kts | 278° |
| 2026-05-08 15:24 | 62.38835 | 67.02052 | 34049 ft | 343 kts | 278° |
| 2026-05-08 15:25 | 62.39696 | 66.91906 | 34048 ft | 343 kts | 278° |
| 2026-05-08 15:25 | 62.40542 | 66.81729 | 34048 ft | 343 kts | 278° |
| 2026-05-08 15:26 | 62.41392 | 66.71573 | 34047 ft | 345 kts | 278° |
| 2026-05-08 15:26 | 62.42233 | 66.61373 | 34052 ft | 344 kts | 278° |
| 2026-05-08 15:27 | 62.43056 | 66.51251 | 34046 ft | 343 kts | 278° |
| 2026-05-08 15:27 | 62.43869 | 66.41066 | 34047 ft | 344 kts | 278° |
| 2026-05-08 15:28 | 62.44678 | 66.30928 | 34035 ft | 344 kts | 277° |
| 2026-05-08 15:28 | 62.45450 | 66.21125 | 34049 ft | 344 kts | 277° |
| 2026-05-08 15:29 | 62.46189 | 66.11736 | 34048 ft | 344 kts | 277° |
| 2026-05-08 15:29 | 62.46939 | 66.00886 | 34048 ft | 342 kts | 271° |
| 2026-05-08 15:30 | 62.47011 | 65.90591 | 34049 ft | 342 kts | 270° |
| 2026-05-08 15:30 | 62.47149 | 65.80335 | 34047 ft | 342 kts | 271° |
| 2026-05-08 15:31 | 62.47323 | 65.69994 | 34044 ft | 343 kts | 271° |
| 2026-05-08 15:31 | 62.47499 | 65.59708 | 34050 ft | 343 kts | 271° |
| 2026-05-08 15:32 | 62.47668 | 65.49377 | 34045 ft | 344 kts | 271° |
| 2026-05-08 15:32 | 62.47825 | 65.39177 | 34049 ft | 344 kts | 271° |
| 2026-05-08 15:33 | 62.47980 | 65.28741 | 34038 ft | 345 kts | 271° |
| 2026-05-08 15:33 | 62.48127 | 65.18306 | 34050 ft | 345 kts | 270° |
| 2026-05-08 15:34 | 62.48266 | 65.07938 | 34048 ft | 346 kts | 271° |
| 2026-05-08 15:34 | 62.48406 | 64.97491 | 34049 ft | 346 kts | 270° |
| 2026-05-08 15:35 | 62.48527 | 64.87101 | 34046 ft | 347 kts | 270° |
| 2026-05-08 15:35 | 62.48681 | 64.76639 | 34049 ft | 347 kts | 271° |
| 2026-05-08 15:36 | 62.48850 | 64.66212 | 34048 ft | 347 kts | 271° |
| 2026-05-08 15:36 | 62.49010 | 64.55817 | 34047 ft | 347 kts | 271° |
| 2026-05-08 15:37 | 62.49173 | 64.45400 | 34048 ft | 347 kts | 271° |
| 2026-05-08 15:37 | 62.49331 | 64.34905 | 34049 ft | 347 kts | 270° |
| 2026-05-08 15:38 | 62.49482 | 64.24539 | 34048 ft | 346 kts | 270° |
| 2026-05-08 15:38 | 62.49622 | 64.14100 | 34047 ft | 346 kts | 270° |
| 2026-05-08 15:39 | 62.49753 | 64.03637 | 34046 ft | 346 kts | 270° |
| 2026-05-08 15:39 | 62.49879 | 63.93206 | 34021 ft | 347 kts | 270° |
| 2026-05-08 15:40 | 62.49995 | 63.82807 | 34002 ft | 347 kts | 270° |
| 2026-05-08 15:40 | 62.50090 | 63.74121 | 33993 ft | 347 kts | 270° |
| 2026-05-08 15:41 | 62.50210 | 63.62082 | 33992 ft | 347 kts | 270° |
| 2026-05-08 15:41 | 62.50307 | 63.51629 | 33991 ft | 348 kts | 270° |
| 2026-05-08 15:42 | 62.50390 | 63.41106 | 33995 ft | 348 kts | 270° |
| 2026-05-08 15:42 | 62.50471 | 63.30646 | 33981 ft | 348 kts | 269° |
| 2026-05-08 15:43 | 62.50540 | 63.20152 | 33992 ft | 349 kts | 269° |
| 2026-05-08 15:43 | 62.50603 | 63.09589 | 33996 ft | 349 kts | 269° |
| 2026-05-08 15:44 | 62.50660 | 62.99027 | 33994 ft | 349 kts | 269° |
| 2026-05-08 15:44 | 62.50708 | 62.88467 | 33993 ft | 349 kts | 269° |
| 2026-05-08 15:45 | 62.50750 | 62.77994 | 33993 ft | 349 kts | 269° |
| 2026-05-08 15:45 | 62.50784 | 62.67513 | 33994 ft | 349 kts | 269° |
| 2026-05-08 15:46 | 62.50814 | 62.57002 | 33994 ft | 349 kts | 269° |
| 2026-05-08 15:46 | 62.50834 | 62.46499 | 33993 ft | 349 kts | 269° |
| 2026-05-08 15:47 | 62.50844 | 62.35973 | 33994 ft | 349 kts | 269° |
| 2026-05-08 15:47 | 62.50847 | 62.25413 | 33993 ft | 349 kts | 268° |
| 2026-05-08 15:48 | 62.50834 | 62.09618 | 33993 ft | 349 kts | 268° |
| 2026-05-08 15:49 | 62.50814 | 61.99136 | 33994 ft | 349 kts | 268° |
| 2026-05-08 15:49 | 62.50784 | 61.88578 | 33994 ft | 349 kts | 268° |
| 2026-05-08 15:50 | 62.50742 | 61.78057 | 33993 ft | 349 kts | 268° |
| 2026-05-08 15:50 | 62.50697 | 61.67585 | 33993 ft | 349 kts | 268° |
| 2026-05-08 15:51 | 62.50644 | 61.56989 | 33994 ft | 351 kts | 268° |
| 2026-05-08 15:51 | 62.50586 | 61.46485 | 33995 ft | 351 kts | 268° |
| 2026-05-08 15:52 | 62.50520 | 61.35934 | 33995 ft | 350 kts | 268° |
| 2026-05-08 15:52 | 62.50444 | 61.25348 | 33998 ft | 350 kts | 267° |
| 2026-05-08 15:53 | 62.50366 | 61.14874 | 33988 ft | 352 kts | 267° |
| 2026-05-08 15:53 | 62.50277 | 61.04322 | 33976 ft | 352 kts | 267° |
| 2026-05-08 15:54 | 62.50176 | 60.93753 | 33943 ft | 351 kts | 267° |
| 2026-05-08 15:54 | 62.50069 | 60.83230 | 33946 ft | 351 kts | 267° |
| 2026-05-08 15:55 | 62.49951 | 60.72686 | 33940 ft | 351 kts | 267° |
| 2026-05-08 15:55 | 62.49769 | 60.56868 | 33943 ft | 351 kts | 267° |
| 2026-05-08 15:56 | 62.49638 | 60.46260 | 33938 ft | 351 kts | 266° |
| 2026-05-08 15:56 | 62.49495 | 60.35763 | 33937 ft | 352 kts | 266° |
| 2026-05-08 15:57 | 62.49340 | 60.25177 | 33942 ft | 352 kts | 266° |
| 2026-05-08 15:57 | 62.49181 | 60.14611 | 33939 ft | 352 kts | 266° |
| 2026-05-08 15:58 | 62.49020 | 60.04005 | 33939 ft | 351 kts | 266° |
| 2026-05-08 15:58 | 62.48853 | 59.93914 | 33937 ft | 351 kts | 265° |
| 2026-05-08 15:59 | 62.48663 | 59.83347 | 33948 ft | 352 kts | 266° |
| 2026-05-08 15:59 | 62.48471 | 59.72784 | 33939 ft | 352 kts | 266° |
| 2026-05-08 16:00 | 62.48273 | 59.62231 | 33938 ft | 353 kts | 266° |
| 2026-05-08 16:00 | 62.47998 | 59.51611 | 33948 ft | 353 kts | 265° |
| 2026-05-08 16:01 | 62.47858 | 59.41016 | 33946 ft | 352 kts | 267° |
| 2026-05-08 16:01 | 62.47823 | 59.30421 | 33920 ft | 354 kts | 267° |
| 2026-05-08 16:02 | 62.47798 | 59.19821 | 33943 ft | 353 kts | 267° |
| 2026-05-08 16:02 | 62.47769 | 59.09267 | 33939 ft | 354 kts | 267° |
| 2026-05-08 16:03 | 62.47736 | 58.98591 | 33941 ft | 354 kts | 267° |
| 2026-05-08 16:03 | 62.47698 | 58.87952 | 33938 ft | 355 kts | 267° |
| 2026-05-08 16:04 | 62.47651 | 58.77303 | 33941 ft | 356 kts | 267° |
| 2026-05-08 16:04 | 62.47598 | 58.66861 | 33937 ft | 356 kts | 267° |
| 2026-05-08 16:05 | 62.47533 | 58.56143 | 33940 ft | 357 kts | 267° |
| 2026-05-08 16:05 | 62.47465 | 58.45831 | 33941 ft | 357 kts | 267° |
| 2026-05-08 16:06 | 62.47385 | 58.35337 | 33940 ft | 357 kts | 267° |
| 2026-05-08 16:06 | 62.47296 | 58.24576 | 33936 ft | 357 kts | 266° |
| 2026-05-08 16:07 | 62.47203 | 58.14305 | 33942 ft | 358 kts | 266° |
| 2026-05-08 16:07 | 62.47100 | 58.03556 | 33940 ft | 358 kts | 266° |
| 2026-05-08 16:08 | 62.46986 | 57.92814 | 33937 ft | 357 kts | 266° |
| 2026-05-08 16:08 | 62.46869 | 57.82089 | 33939 ft | 358 kts | 266° |
| 2026-05-08 16:09 | 62.46743 | 57.71640 | 33940 ft | 358 kts | 266° |
| 2026-05-08 16:09 | 62.46618 | 57.61871 | 33939 ft | 359 kts | 266° |
| 2026-05-08 16:10 | 62.46472 | 57.51049 | 33941 ft | 359 kts | 266° |
| 2026-05-08 16:10 | 62.46321 | 57.40499 | 33940 ft | 359 kts | 266° |
| 2026-05-08 16:11 | 62.46163 | 57.30089 | 33927 ft | 359 kts | 265° |
| 2026-05-08 16:11 | 62.46003 | 57.19821 | 33941 ft | 358 kts | 265° |
| 2026-05-08 16:12 | 62.45822 | 57.09046 | 33938 ft | 360 kts | 265° |
| 2026-05-08 16:12 | 62.45642 | 56.98685 | 33947 ft | 360 kts | 265° |
| 2026-05-08 16:13 | 62.45451 | 56.87918 | 33936 ft | 360 kts | 265° |
| 2026-05-08 16:13 | 62.45260 | 56.77650 | 33944 ft | 360 kts | 265° |
| 2026-05-08 16:14 | 62.45055 | 56.67071 | 33940 ft | 360 kts | 265° |
| 2026-05-08 16:14 | 62.44838 | 56.56502 | 33941 ft | 361 kts | 265° |
| 2026-05-08 16:15 | 62.44613 | 56.45670 | 33951 ft | 361 kts | 265° |
| 2026-05-08 16:15 | 62.44385 | 56.35509 | 33939 ft | 361 kts | 265° |
| 2026-05-08 16:16 | 62.44140 | 56.24741 | 33946 ft | 361 kts | 264° |
| 2026-05-08 16:16 | 62.43906 | 56.14136 | 33939 ft | 361 kts | 264° |
| 2026-05-08 16:17 | 62.43654 | 56.03952 | 33962 ft | 361 kts | 264° |
| 2026-05-08 16:17 | 62.43383 | 55.93194 | 33978 ft | 361 kts | 264° |
| 2026-05-08 16:18 | 62.43119 | 55.82741 | 34001 ft | 361 kts | 264° |
| 2026-05-08 16:18 | 62.42835 | 55.71907 | 33998 ft | 361 kts | 264° |
| 2026-05-08 16:19 | 62.42550 | 55.61518 | 33998 ft | 362 kts | 264° |
| 2026-05-08 16:19 | 62.42247 | 55.50623 | 33999 ft | 362 kts | 264° |
| 2026-05-08 16:20 | 62.41949 | 55.40199 | 33996 ft | 362 kts | 264° |
| 2026-05-08 16:20 | 62.41632 | 55.29415 | 33986 ft | 362 kts | 263° |
| 2026-05-08 16:21 | 62.41301 | 55.18583 | 34001 ft | 361 kts | 264° |
| 2026-05-08 16:21 | 62.40855 | 55.07729 | 33991 ft | 361 kts | 262° |
| 2026-05-08 16:22 | 62.40423 | 54.97332 | 33995 ft | 360 kts | 263° |
| 2026-05-08 16:22 | 62.40067 | 54.86776 | 33993 ft | 360 kts | 263° |
| 2026-05-08 16:23 | 62.39738 | 54.76512 | 33993 ft | 360 kts | 264° |
| 2026-05-08 16:23 | 62.39395 | 54.65948 | 33994 ft | 361 kts | 264° |
| 2026-05-08 16:24 | 62.39037 | 54.55150 | 33994 ft | 360 kts | 264° |
| 2026-05-08 16:24 | 62.38689 | 54.44824 | 33994 ft | 359 kts | 263° |
| 2026-05-08 16:25 | 62.38329 | 54.34492 | 33992 ft | 359 kts | 263° |
| 2026-05-08 16:25 | 62.37946 | 54.23725 | 33994 ft | 360 kts | 263° |
| 2026-05-08 16:26 | 62.37580 | 54.13556 | 33995 ft | 360 kts | 263° |
| 2026-05-08 16:26 | 62.37191 | 54.02799 | 33994 ft | 360 kts | 263° |
| 2026-05-08 16:27 | 62.36775 | 53.91993 | 33997 ft | 359 kts | 262° |
| 2026-05-08 16:27 | 62.36351 | 53.81979 | 34009 ft | 360 kts | 263° |
| 2026-05-08 16:28 | 62.35942 | 53.71585 | 34020 ft | 360 kts | 263° |
| 2026-05-08 16:28 | 62.35511 | 53.60815 | 34022 ft | 360 kts | 263° |
| 2026-05-08 16:29 | 62.35113 | 53.50787 | 34019 ft | 360 kts | 263° |
| 2026-05-08 16:29 | 62.34669 | 53.40054 | 34022 ft | 361 kts | 263° |
| 2026-05-08 16:30 | 62.34238 | 53.29604 | 34010 ft | 361 kts | 262° |
| 2026-05-08 16:30 | 62.33792 | 53.18847 | 34021 ft | 360 kts | 263° |
| 2026-05-08 16:31 | 62.33345 | 53.08105 | 34020 ft | 360 kts | 262° |
| 2026-05-08 16:31 | 62.32911 | 52.98055 | 34022 ft | 361 kts | 262° |
| 2026-05-08 16:32 | 62.32439 | 52.87323 | 34022 ft | 360 kts | 262° |
| 2026-05-08 16:32 | 62.31971 | 52.76770 | 34020 ft | 360 kts | 262° |
| 2026-05-08 16:33 | 62.31488 | 52.66043 | 34020 ft | 361 kts | 262° |
| 2026-05-08 16:33 | 62.30995 | 52.55296 | 34024 ft | 360 kts | 262° |
| 2026-05-08 16:34 | 62.30497 | 52.44606 | 34020 ft | 359 kts | 262° |
| 2026-05-08 16:34 | 62.29990 | 52.33962 | 34020 ft | 359 kts | 261° |
| 2026-05-08 16:35 | 62.29474 | 52.23241 | 34020 ft | 358 kts | 261° |
| 2026-05-08 16:35 | 62.28952 | 52.12598 | 34020 ft | 359 kts | 261° |
| 2026-05-08 16:36 | 62.28419 | 52.01901 | 34021 ft | 359 kts | 261° |
| 2026-05-08 16:36 | 62.27878 | 51.91247 | 34021 ft | 359 kts | 261° |
| 2026-05-08 16:37 | 62.27334 | 51.80632 | 34021 ft | 359 kts | 261° |
| 2026-05-08 16:37 | 62.26770 | 51.69978 | 34021 ft | 359 kts | 261° |
| 2026-05-08 16:38 | 62.26203 | 51.59293 | 34018 ft | 360 kts | 261° |
| 2026-05-08 16:38 | 62.25628 | 51.48587 | 34023 ft | 360 kts | 261° |
| 2026-05-08 16:39 | 62.25049 | 51.37892 | 34019 ft | 361 kts | 261° |
| 2026-05-08 16:39 | 62.24466 | 51.27359 | 34017 ft | 361 kts | 260° |
| 2026-05-08 16:40 | 62.23862 | 51.16625 | 34020 ft | 362 kts | 260° |
| 2026-05-08 16:40 | 62.23273 | 51.06244 | 34022 ft | 362 kts | 260° |
| 2026-05-08 16:41 | 62.22655 | 50.95548 | 34021 ft | 362 kts | 260° |
| 2026-05-08 16:42 | 62.21710 | 50.79468 | 34021 ft | 362 kts | 260° |
| 2026-05-08 16:42 | 62.21072 | 50.68787 | 34020 ft | 362 kts | 260° |
| 2026-05-08 16:43 | 62.20432 | 50.58243 | 34024 ft | 362 kts | 260° |
| 2026-05-08 16:43 | 62.19701 | 50.47631 | 34020 ft | 361 kts | 259° |
| 2026-05-08 16:44 | 62.19021 | 50.37359 | 34023 ft | 360 kts | 260° |
| 2026-05-08 16:44 | 62.18355 | 50.26768 | 34015 ft | 360 kts | 259° |
| 2026-05-08 16:45 | 62.17706 | 50.16427 | 34602 ft | 354 kts | 259° |
| 2026-05-08 16:45 | 62.17381 | 50.11293 | 35039 ft | 350 kts | 259° |
| 2026-05-08 16:45 | 62.17047 | 50.06067 | 35310 ft | 351 kts | 259° |
| 2026-05-08 16:45 | 62.16716 | 50.00918 | 35500 ft | 354 kts | 259° |
| 2026-05-08 16:46 | 62.16402 | 49.96046 | 35682 ft | 355 kts | 259° |
| 2026-05-08 16:46 | 62.16063 | 49.90803 | 35904 ft | 356 kts | 259° |
| 2026-05-08 16:46 | 62.15724 | 49.85582 | 36039 ft | 360 kts | 260° |
| 2026-05-08 16:47 | 62.15018 | 49.74817 | 36022 ft | 366 kts | 260° |
| 2026-05-08 16:47 | 62.14303 | 49.64056 | 36027 ft | 366 kts | 260° |
| 2026-05-08 16:48 | 62.13576 | 49.53241 | 36021 ft | 366 kts | 260° |
| 2026-05-08 16:48 | 62.12841 | 49.42474 | 36021 ft | 367 kts | 260° |
| 2026-05-08 16:49 | 62.12098 | 49.31690 | 36007 ft | 367 kts | 259° |
| 2026-05-08 16:49 | 62.11350 | 49.20971 | 36020 ft | 368 kts | 259° |
| 2026-05-08 16:50 | 62.10549 | 49.10171 | 36021 ft | 368 kts | 258° |
| 2026-05-08 16:50 | 62.09635 | 48.99400 | 36024 ft | 368 kts | 258° |
| 2026-05-08 16:51 | 62.08737 | 48.88656 | 36020 ft | 367 kts | 258° |
| 2026-05-08 16:51 | 62.07841 | 48.77932 | 36020 ft | 367 kts | 258° |
| 2026-05-08 16:52 | 62.07142 | 48.69573 | 36025 ft | 368 kts | 258° |
| 2026-05-08 16:52 | 62.06104 | 48.57389 | 36023 ft | 368 kts | 258° |
| 2026-05-08 16:53 | 62.04715 | 48.41185 | 36016 ft | 368 kts | 258° |
| 2026-05-08 16:53 | 62.03787 | 48.30484 | 36006 ft | 368 kts | 257° |
| 2026-05-08 16:54 | 62.02844 | 48.19768 | 36023 ft | 367 kts | 257° |
| 2026-05-08 16:54 | 62.01917 | 48.09303 | 36017 ft | 366 kts | 257° |
| 2026-05-08 16:55 | 62.00974 | 47.98725 | 36013 ft | 367 kts | 257° |
| 2026-05-08 16:55 | 62.00011 | 47.88066 | 36029 ft | 367 kts | 257° |
| 2026-05-08 16:56 | 61.99040 | 47.77407 | 36043 ft | 367 kts | 257° |
| 2026-05-08 16:56 | 61.98061 | 47.66778 | 36051 ft | 367 kts | 257° |
| 2026-05-08 16:57 | 61.97090 | 47.56283 | 36053 ft | 367 kts | 257° |
| 2026-05-08 16:57 | 61.96096 | 47.45688 | 36050 ft | 367 kts | 258° |
| 2026-05-08 16:58 | 61.95085 | 47.34966 | 36045 ft | 368 kts | 257° |
| 2026-05-08 16:58 | 61.94064 | 47.24315 | 36053 ft | 368 kts | 257° |
| 2026-05-08 16:59 | 61.93033 | 47.13760 | 36048 ft | 368 kts | 257° |
| 2026-05-08 16:59 | 61.91955 | 47.03071 | 36048 ft | 369 kts | 257° |
| 2026-05-08 17:00 | 61.90894 | 46.92362 | 36056 ft | 370 kts | 257° |
| 2026-05-08 17:00 | 61.89781 | 46.81731 | 36065 ft | 370 kts | 256° |
| 2026-05-08 17:01 | 61.88646 | 46.71361 | 36073 ft | 370 kts | 257° |
| 2026-05-08 17:01 | 61.87521 | 46.60761 | 36071 ft | 370 kts | 257° |
| 2026-05-08 17:02 | 61.86379 | 46.50081 | 36067 ft | 370 kts | 257° |
| 2026-05-08 17:02 | 61.85222 | 46.39431 | 36059 ft | 371 kts | 257° |
| 2026-05-08 17:03 | 61.84076 | 46.28795 | 36051 ft | 372 kts | 256° |
| 2026-05-08 17:03 | 61.82908 | 46.18190 | 36063 ft | 371 kts | 256° |
| 2026-05-08 17:04 | 61.81739 | 46.07629 | 36055 ft | 372 kts | 256° |
| 2026-05-08 17:04 | 61.80547 | 45.96943 | 36058 ft | 372 kts | 256° |
| 2026-05-08 17:05 | 61.79351 | 45.86305 | 36060 ft | 372 kts | 256° |
| 2026-05-08 17:05 | 61.78148 | 45.75713 | 36055 ft | 372 kts | 256° |
| 2026-05-08 17:06 | 61.76941 | 45.65131 | 36054 ft | 372 kts | 256° |
| 2026-05-08 17:06 | 61.75726 | 45.54514 | 36048 ft | 371 kts | 256° |
| 2026-05-08 17:07 | 61.74496 | 45.43910 | 36044 ft | 370 kts | 256° |
| 2026-05-08 17:07 | 61.73281 | 45.33469 | 36033 ft | 371 kts | 256° |
| 2026-05-08 17:08 | 61.72172 | 45.24017 | 36045 ft | 371 kts | 256° |
| 2026-05-08 17:08 | 61.70835 | 45.12697 | 36055 ft | 372 kts | 256° |
| 2026-05-08 17:09 | 61.69821 | 45.02010 | 36060 ft | 372 kts | 263° |
| 2026-05-08 17:09 | 61.69328 | 44.91215 | 36062 ft | 372 kts | 263° |
| 2026-05-08 17:10 | 61.68823 | 44.80331 | 36079 ft | 373 kts | 263° |
| 2026-05-08 17:10 | 61.68298 | 44.69450 | 36085 ft | 374 kts | 263° |
| 2026-05-08 17:11 | 61.67773 | 44.58506 | 36085 ft | 375 kts | 264° |
| 2026-05-08 17:11 | 61.67242 | 44.47543 | 36076 ft | 375 kts | 264° |
| 2026-05-08 17:12 | 61.66707 | 44.36620 | 36080 ft | 376 kts | 264° |
| 2026-05-08 17:12 | 61.66157 | 44.25738 | 36085 ft | 377 kts | 263° |
| 2026-05-08 17:13 | 61.65595 | 44.14751 | 36077 ft | 378 kts | 263° |
| 2026-05-08 17:13 | 61.65015 | 44.03829 | 36097 ft | 377 kts | 263° |
| 2026-05-08 17:14 | 61.64433 | 43.92861 | 36126 ft | 377 kts | 263° |
| 2026-05-08 17:14 | 61.63839 | 43.81881 | 36129 ft | 378 kts | 263° |
| 2026-05-08 17:15 | 61.63242 | 43.70930 | 36131 ft | 378 kts | 263° |
| 2026-05-08 17:15 | 61.62634 | 43.59952 | 36132 ft | 376 kts | 263° |
| 2026-05-08 17:16 | 61.62045 | 43.49366 | 36126 ft | 376 kts | 263° |
| 2026-05-08 17:16 | 61.61420 | 43.38444 | 36135 ft | 375 kts | 263° |
| 2026-05-08 17:17 | 61.60789 | 43.27660 | 36124 ft | 375 kts | 262° |
| 2026-05-08 17:17 | 61.60153 | 43.16795 | 36129 ft | 374 kts | 263° |
| 2026-05-08 17:18 | 61.59504 | 43.05924 | 36126 ft | 374 kts | 263° |
| 2026-05-08 17:18 | 61.58847 | 42.95073 | 36131 ft | 374 kts | 263° |
| 2026-05-08 17:19 | 61.58184 | 42.84239 | 36134 ft | 375 kts | 263° |
| 2026-05-08 17:19 | 61.57520 | 42.73460 | 36133 ft | 374 kts | 263° |
| 2026-05-08 17:20 | 61.56844 | 42.62689 | 36123 ft | 375 kts | 263° |
| 2026-05-08 17:20 | 61.56151 | 42.51820 | 36138 ft | 376 kts | 263° |
| 2026-05-08 17:21 | 61.55454 | 42.41011 | 36129 ft | 376 kts | 263° |
| 2026-05-08 17:21 | 61.54722 | 42.30153 | 36118 ft | 376 kts | 261° |
| 2026-05-08 17:22 | 61.53962 | 42.19562 | 36131 ft | 376 kts | 262° |
| 2026-05-08 17:22 | 61.53233 | 42.08695 | 36131 ft | 376 kts | 262° |
| 2026-05-08 17:23 | 61.52630 | 41.99515 | 36129 ft | 376 kts | 263° |
| 2026-05-08 17:23 | 61.51742 | 41.86155 | 36139 ft | 376 kts | 263° |
| 2026-05-08 17:24 | 61.51009 | 41.75340 | 36155 ft | 375 kts | 263° |
| 2026-05-08 17:24 | 61.50274 | 41.64588 | 36155 ft | 375 kts | 263° |
| 2026-05-08 17:25 | 61.49531 | 41.53851 | 36159 ft | 374 kts | 263° |
| 2026-05-08 17:25 | 61.48776 | 41.43085 | 36157 ft | 373 kts | 263° |
| 2026-05-08 17:26 | 61.48015 | 41.32344 | 36138 ft | 373 kts | 262° |
| 2026-05-08 17:26 | 61.47247 | 41.21637 | 36160 ft | 373 kts | 262° |
| 2026-05-08 17:27 | 61.46473 | 41.10992 | 36156 ft | 372 kts | 262° |
| 2026-05-08 17:27 | 61.45691 | 41.00330 | 36158 ft | 371 kts | 262° |
| 2026-05-08 17:28 | 61.44901 | 40.89629 | 36176 ft | 371 kts | 262° |
| 2026-05-08 17:28 | 61.44104 | 40.79017 | 36202 ft | 371 kts | 262° |
| 2026-05-08 17:29 | 61.43292 | 40.68327 | 36212 ft | 372 kts | 262° |
| 2026-05-08 17:29 | 61.42474 | 40.57677 | 36211 ft | 371 kts | 262° |
| 2026-05-08 17:30 | 61.41651 | 40.47053 | 36207 ft | 372 kts | 262° |
| 2026-05-08 17:30 | 61.40816 | 40.36381 | 36212 ft | 372 kts | 262° |
| 2026-05-08 17:31 | 61.39975 | 40.25698 | 36207 ft | 372 kts | 262° |
| 2026-05-08 17:31 | 61.39114 | 40.15065 | 36213 ft | 374 kts | 261° |
| 2026-05-08 17:32 | 61.38236 | 40.04431 | 36216 ft | 374 kts | 261° |
| 2026-05-08 17:32 | 61.37361 | 39.93755 | 36218 ft | 373 kts | 262° |
| 2026-05-08 17:33 | 61.36473 | 39.83104 | 36215 ft | 372 kts | 262° |
| 2026-05-08 17:33 | 61.35588 | 39.72444 | 36210 ft | 371 kts | 262° |
| 2026-05-08 17:34 | 61.34704 | 39.61895 | 36204 ft | 372 kts | 261° |
| 2026-05-08 17:34 | 61.33787 | 39.51291 | 36210 ft | 372 kts | 262° |
| 2026-05-08 17:35 | 61.32879 | 39.40779 | 36206 ft | 371 kts | 262° |
| 2026-05-08 17:35 | 61.31948 | 39.30147 | 36195 ft | 370 kts | 261° |
| 2026-05-08 17:36 | 61.31025 | 39.19658 | 36210 ft | 370 kts | 261° |
| 2026-05-08 17:36 | 61.30104 | 39.09190 | 36209 ft | 371 kts | 261° |
| 2026-05-08 17:37 | 61.29151 | 38.98616 | 36219 ft | 371 kts | 261° |
| 2026-05-08 17:37 | 61.28186 | 38.88094 | 36229 ft | 371 kts | 261° |
| 2026-05-08 17:38 | 61.27223 | 38.77532 | 36236 ft | 371 kts | 262° |
| 2026-05-08 17:38 | 61.26271 | 38.67007 | 36239 ft | 371 kts | 262° |
| 2026-05-08 17:39 | 61.25359 | 38.56956 | 36241 ft | 371 kts | 262° |
| 2026-05-08 17:39 | 61.24396 | 38.46420 | 36236 ft | 371 kts | 262° |
| 2026-05-08 17:40 | 61.22802 | 38.36250 | 36229 ft | 376 kts | 249° |
| 2026-05-08 17:40 | 61.20542 | 38.26517 | 36226 ft | 377 kts | 248° |
| 2026-05-08 17:41 | 61.18305 | 38.16732 | 36230 ft | 378 kts | 248° |
| 2026-05-08 17:41 | 61.16050 | 38.06898 | 36226 ft | 376 kts | 249° |
| 2026-05-08 17:42 | 61.13814 | 37.97128 | 36233 ft | 375 kts | 249° |
| 2026-05-08 17:42 | 61.11639 | 37.87651 | 36231 ft | 375 kts | 249° |
| 2026-05-08 17:43 | 61.09390 | 37.77962 | 36236 ft | 376 kts | 249° |
| 2026-05-08 17:43 | 61.07141 | 37.68270 | 36236 ft | 375 kts | 249° |
| 2026-05-08 17:44 | 61.04876 | 37.58559 | 36233 ft | 375 kts | 249° |
| 2026-05-08 17:44 | 61.02630 | 37.48969 | 36246 ft | 374 kts | 249° |
| 2026-05-08 17:45 | 61.00412 | 37.39525 | 36246 ft | 373 kts | 249° |
| 2026-05-08 17:45 | 60.98177 | 37.30071 | 36225 ft | 373 kts | 248° |
| 2026-05-08 17:46 | 60.95900 | 37.20468 | 36244 ft | 374 kts | 248° |
| 2026-05-08 17:46 | 60.93614 | 37.10896 | 36254 ft | 373 kts | 248° |
| 2026-05-08 17:47 | 60.91335 | 37.01387 | 36250 ft | 373 kts | 249° |
| 2026-05-08 17:47 | 60.89427 | 36.93458 | 36251 ft | 374 kts | 248° |
| 2026-05-08 17:48 | 60.86745 | 36.82465 | 36266 ft | 372 kts | 249° |
| 2026-05-08 17:48 | 60.84444 | 36.72980 | 36265 ft | 372 kts | 249° |
| 2026-05-08 17:49 | 60.82117 | 36.63507 | 36268 ft | 372 kts | 249° |
| 2026-05-08 17:49 | 60.79801 | 36.54071 | 36264 ft | 371 kts | 249° |
| 2026-05-08 17:50 | 60.77513 | 36.44635 | 36269 ft | 369 kts | 249° |
| 2026-05-08 17:50 | 60.75229 | 36.35278 | 36254 ft | 369 kts | 249° |
| 2026-05-08 17:51 | 60.72932 | 36.25875 | 36266 ft | 370 kts | 249° |
| 2026-05-08 17:51 | 60.70628 | 36.16509 | 36265 ft | 369 kts | 249° |
| 2026-05-08 17:52 | 60.68338 | 36.07209 | 36267 ft | 368 kts | 249° |
| 2026-05-08 17:53 | 60.64883 | 35.93272 | 36263 ft | 367 kts | 249° |
| 2026-05-08 17:53 | 60.62573 | 35.84010 | 36263 ft | 367 kts | 249° |
| 2026-05-08 17:54 | 60.60256 | 35.74762 | 36259 ft | 367 kts | 249° |
| 2026-05-08 17:54 | 60.57921 | 35.65478 | 36255 ft | 367 kts | 249° |
| 2026-05-08 17:55 | 60.55612 | 35.56348 | 36251 ft | 367 kts | 249° |
| 2026-05-08 17:55 | 60.53267 | 35.47103 | 36247 ft | 367 kts | 249° |
| 2026-05-08 17:56 | 60.50942 | 35.37970 | 36243 ft | 367 kts | 249° |
| 2026-05-08 17:56 | 60.48603 | 35.28819 | 36230 ft | 368 kts | 248° |
| 2026-05-08 17:57 | 60.46265 | 35.19707 | 36237 ft | 369 kts | 248° |
| 2026-05-08 17:57 | 60.44362 | 35.10249 | 36237 ft | 361 kts | 259° |
| 2026-05-08 17:58 | 60.43160 | 35.00423 | 36239 ft | 362 kts | 260° |
| 2026-05-08 17:58 | 60.41940 | 34.90582 | 36248 ft | 361 kts | 259° |
| 2026-05-08 17:59 | 60.40703 | 34.80745 | 36257 ft | 361 kts | 259° |
| 2026-05-08 17:59 | 60.39460 | 34.70931 | 36267 ft | 362 kts | 259° |
| 2026-05-08 18:00 | 60.38210 | 34.61161 | 36265 ft | 360 kts | 259° |
| 2026-05-08 18:00 | 60.36322 | 34.46506 | 36263 ft | 359 kts | 259° |
| 2026-05-08 18:01 | 60.35071 | 34.36847 | 36265 ft | 358 kts | 259° |
| 2026-05-08 18:01 | 60.33812 | 34.27198 | 36268 ft | 358 kts | 259° |
| 2026-05-08 18:02 | 60.32745 | 34.19063 | 36265 ft | 358 kts | 259° |
| 2026-05-08 18:02 | 60.31255 | 34.07782 | 36264 ft | 357 kts | 258° |
| 2026-05-08 18:03 | 60.29971 | 33.98138 | 36275 ft | 356 kts | 259° |
| 2026-05-08 18:03 | 60.28685 | 33.88564 | 36280 ft | 357 kts | 259° |
| 2026-05-08 18:04 | 60.27380 | 33.78864 | 36294 ft | 358 kts | 258° |
| 2026-05-08 18:04 | 60.26072 | 33.69230 | 36291 ft | 359 kts | 259° |
| 2026-05-08 18:05 | 60.24756 | 33.59557 | 36297 ft | 359 kts | 258° |
| 2026-05-08 18:05 | 60.23421 | 33.49881 | 36290 ft | 360 kts | 258° |
| 2026-05-08 18:06 | 60.22090 | 33.40212 | 36294 ft | 360 kts | 258° |
| 2026-05-08 18:06 | 60.20744 | 33.30531 | 36275 ft | 362 kts | 258° |
| 2026-05-08 18:07 | 60.19384 | 33.20806 | 36300 ft | 363 kts | 258° |
| 2026-05-08 18:07 | 60.17988 | 33.11069 | 36296 ft | 364 kts | 257° |
| 2026-05-08 18:08 | 60.16587 | 33.01419 | 36215 ft | 363 kts | 258° |
| 2026-05-08 18:08 | 60.15889 | 32.96551 | 35597 ft | 361 kts | 258° |
| 2026-05-08 18:08 | 60.15202 | 32.91790 | 34795 ft | 364 kts | 258° |
| 2026-05-08 18:09 | 60.14500 | 32.86887 | 34010 ft | 365 kts | 258° |
| 2026-05-08 18:09 | 60.13804 | 32.82021 | 33279 ft | 365 kts | 258° |
| 2026-05-08 18:09 | 60.13098 | 32.77137 | 32569 ft | 364 kts | 258° |
| 2026-05-08 18:09 | 60.12405 | 32.72345 | 31892 ft | 362 kts | 258° |
| 2026-05-08 18:10 | 60.11716 | 32.67572 | 31240 ft | 360 kts | 259° |
| 2026-05-08 18:10 | 60.11024 | 32.62815 | 30575 ft | 359 kts | 258° |
| 2026-05-08 18:10 | 60.10332 | 32.58052 | 29854 ft | 358 kts | 258° |
| 2026-05-08 18:10 | 60.09647 | 32.53326 | 29201 ft | 355 kts | 258° |
| 2026-05-08 18:11 | 60.08951 | 32.48583 | 28513 ft | 354 kts | 258° |
| 2026-05-08 18:11 | 60.08255 | 32.43879 | 27920 ft | 350 kts | 259° |
| 2026-05-08 18:11 | 60.07586 | 32.39327 | 27521 ft | 341 kts | 259° |
| 2026-05-08 18:11 | 60.06916 | 32.34777 | 27119 ft | 344 kts | 258° |
| 2026-05-08 18:12 | 60.06256 | 32.30114 | 26640 ft | 356 kts | 261° |
| 2026-05-08 18:12 | 60.05971 | 32.25444 | 26103 ft | 347 kts | 270° |
| 2026-05-08 18:12 | 60.05874 | 32.20635 | 25474 ft | 344 kts | 271° |
| 2026-05-08 18:12 | 60.05782 | 32.15920 | 24989 ft | 339 kts | 271° |
| 2026-05-08 18:13 | 60.05686 | 32.11242 | 24551 ft | 332 kts | 271° |
| 2026-05-08 18:13 | 60.05589 | 32.06709 | 24377 ft | 319 kts | 271° |
| 2026-05-08 18:13 | 60.05493 | 32.02274 | 24423 ft | 323 kts | 271° |
| 2026-05-08 18:13 | 60.05394 | 31.97714 | 24490 ft | 338 kts | 271° |
| 2026-05-08 18:14 | 60.05286 | 31.92998 | 24543 ft | 336 kts | 271° |
| 2026-05-08 18:14 | 60.05176 | 31.88453 | 24571 ft | 316 kts | 271° |
| 2026-05-08 18:14 | 60.05073 | 31.84127 | 24615 ft | 314 kts | 271° |
| 2026-05-08 18:14 | 60.04970 | 31.79705 | 24682 ft | 330 kts | 271° |
| 2026-05-08 18:15 | 60.04855 | 31.74944 | 24715 ft | 343 kts | 271° |
| 2026-05-08 18:15 | 60.04736 | 31.70235 | 24455 ft | 336 kts | 271° |
| 2026-05-08 18:15 | 60.04619 | 31.65633 | 23998 ft | 330 kts | 271° |
| 2026-05-08 18:15 | 60.04499 | 31.60986 | 23506 ft | 325 kts | 271° |
| 2026-05-08 18:16 | 60.04385 | 31.56587 | 23054 ft | 328 kts | 272° |
| 2026-05-08 18:16 | 60.04266 | 31.51958 | 22572 ft | 335 kts | 272° |
| 2026-05-08 18:16 | 60.04142 | 31.47334 | 22089 ft | 329 kts | 272° |
| 2026-05-08 18:16 | 60.04021 | 31.42815 | 21626 ft | 324 kts | 272° |
| 2026-05-08 18:17 | 60.03899 | 31.38312 | 21182 ft | 319 kts | 273° |
| 2026-05-08 18:17 | 60.03655 | 31.34059 | 20699 ft | 328 kts | 265° |
| 2026-05-08 18:17 | 60.03182 | 31.29502 | 20152 ft | 335 kts | 264° |
| 2026-05-08 18:17 | 60.02710 | 31.25041 | 19661 ft | 330 kts | 265° |
| 2026-05-08 18:18 | 60.02246 | 31.20609 | 19222 ft | 325 kts | 265° |
| 2026-05-08 18:18 | 60.01800 | 31.16328 | 18795 ft | 320 kts | 265° |
| 2026-05-08 18:18 | 60.01403 | 31.12510 | 18414 ft | 317 kts | 265° |
| 2026-05-08 18:18 | 60.00957 | 31.08197 | 17964 ft | 325 kts | 265° |
| 2026-05-08 18:19 | 60.00485 | 31.03665 | 17478 ft | 325 kts | 265° |
| 2026-05-08 18:19 | 60.00026 | 30.99301 | 17008 ft | 322 kts | 265° |
| 2026-05-08 18:19 | 59.99602 | 30.95266 | 16600 ft | 318 kts | 264° |
| 2026-05-08 18:19 | 59.99143 | 30.90915 | 16170 ft | 322 kts | 264° |
| 2026-05-08 18:20 | 59.98697 | 30.86674 | 15760 ft | 329 kts | 264° |
| 2026-05-08 18:20 | 59.98233 | 30.82295 | 15287 ft | 325 kts | 264° |
| 2026-05-08 18:20 | 59.97773 | 30.77966 | 14828 ft | 322 kts | 264° |
| 2026-05-08 18:20 | 59.97349 | 30.73991 | 14501 ft | 316 kts | 264° |
| 2026-05-08 18:21 | 59.96877 | 30.69562 | 14370 ft | 317 kts | 264° |
| 2026-05-08 18:21 | 59.96427 | 30.65370 | 14360 ft | 308 kts | 264° |
| 2026-05-08 18:21 | 59.95988 | 30.61301 | 14382 ft | 291 kts | 265° |
| 2026-05-08 18:21 | 59.95787 | 30.57538 | 14374 ft | 268 kts | 278° |
| 2026-05-08 18:22 | 59.96048 | 30.53992 | 14370 ft | 245 kts | 292° |
| 2026-05-08 18:22 | 59.96606 | 30.50921 | 14371 ft | 227 kts | 297° |
| 2026-05-08 18:22 | 59.97185 | 30.48033 | 14358 ft | 222 kts | 297° |
| 2026-05-08 18:22 | 59.97750 | 30.45216 | 14337 ft | 222 kts | 297° |
| 2026-05-08 18:23 | 59.98323 | 30.42353 | 14337 ft | 222 kts | 297° |
| 2026-05-08 18:23 | 59.98900 | 30.39456 | 14341 ft | 222 kts | 297° |
| 2026-05-08 18:23 | 59.99469 | 30.36585 | 14346 ft | 222 kts | 297° |
| 2026-05-08 18:23 | 60.00033 | 30.33742 | 14336 ft | 222 kts | 297° |
| 2026-05-08 18:24 | 60.00596 | 30.30893 | 14340 ft | 222 kts | 297° |
| 2026-05-08 18:24 | 60.01157 | 30.28048 | 14344 ft | 222 kts | 297° |
| 2026-05-08 18:24 | 60.01720 | 30.25188 | 14344 ft | 222 kts | 297° |
| 2026-05-08 18:24 | 60.02290 | 30.22293 | 14348 ft | 221 kts | 297° |
| 2026-05-08 18:25 | 60.02854 | 30.19426 | 14346 ft | 221 kts | 297° |
| 2026-05-08 18:25 | 60.03354 | 30.16532 | 14205 ft | 230 kts | 287° |
| 2026-05-08 18:25 | 60.03598 | 30.13303 | 13752 ft | 240 kts | 285° |
| 2026-05-08 18:25 | 60.03825 | 30.09987 | 13264 ft | 245 kts | 285° |
| 2026-05-08 18:26 | 60.04058 | 30.06591 | 12772 ft | 250 kts | 285° |
| 2026-05-08 18:26 | 60.04297 | 30.03110 | 12325 ft | 253 kts | 285° |
| 2026-05-08 18:26 | 60.04530 | 29.99692 | 12162 ft | 244 kts | 286° |
| 2026-05-08 18:26 | 60.04748 | 29.96413 | 12078 ft | 234 kts | 286° |
| 2026-05-08 18:27 | 60.04961 | 29.93175 | 11652 ft | 238 kts | 285° |
| 2026-05-08 18:27 | 60.05108 | 29.90954 | 11324 ft | 243 kts | 285° |
| 2026-05-08 18:27 | 60.05404 | 29.86457 | 10671 ft | 251 kts | 284° |
| 2026-05-08 18:27 | 60.05633 | 29.82947 | 10175 ft | 257 kts | 283° |
| 2026-05-08 18:28 | 60.05866 | 29.79371 | 9680 ft | 262 kts | 283° |
| 2026-05-08 18:28 | 60.06016 | 29.75687 | 9169 ft | 270 kts | 269° |
| 2026-05-08 18:28 | 60.05469 | 29.72037 | 8738 ft | 274 kts | 253° |
| 2026-05-08 18:28 | 60.04780 | 29.68567 | 8362 ft | 270 kts | 253° |
| 2026-05-08 18:29 | 60.04057 | 29.65142 | 7989 ft | 268 kts | 243° |
| 2026-05-08 18:29 | 60.02902 | 29.62219 | 7727 ft | 263 kts | 232° |
| 2026-05-08 18:29 | 60.01734 | 29.59519 | 7471 ft | 256 kts | 233° |
| 2026-05-08 18:29 | 60.00585 | 29.56857 | 7216 ft | 250 kts | 233° |
| 2026-05-08 18:30 | 59.99453 | 29.54237 | 6941 ft | 249 kts | 232° |
| 2026-05-08 18:30 | 59.98087 | 29.52072 | 6539 ft | 257 kts | 209° |
| 2026-05-08 18:30 | 59.96509 | 29.50477 | 6366 ft | 252 kts | 208° |
| 2026-05-08 18:30 | 59.94958 | 29.48910 | 6307 ft | 252 kts | 208° |
| 2026-05-08 18:31 | 59.93378 | 29.47322 | 6327 ft | 254 kts | 206° |
| 2026-05-08 18:31 | 59.91597 | 29.46662 | 6280 ft | 271 kts | 172° |
| 2026-05-08 18:31 | 59.89950 | 29.48052 | 6068 ft | 254 kts | 134° |
| 2026-05-08 18:31 | 59.89099 | 29.50939 | 5827 ft | 235 kts | 95° |
| 2026-05-08 18:32 | 59.88871 | 29.54114 | 5625 ft | 235 kts | 96° |
| 2026-05-08 18:32 | 59.88592 | 29.57296 | 5393 ft | 233 kts | 96° |
| 2026-05-08 18:32 | 59.88314 | 29.60492 | 5149 ft | 232 kts | 96° |
| 2026-05-08 18:32 | 59.88039 | 29.63643 | 4928 ft | 228 kts | 96° |
| 2026-05-08 18:33 | 59.87774 | 29.66692 | 4675 ft | 219 kts | 96° |
| 2026-05-08 18:33 | 59.87521 | 29.69604 | 4433 ft | 210 kts | 96° |
| 2026-05-08 18:33 | 59.87279 | 29.72389 | 4191 ft | 202 kts | 96° |
| 2026-05-08 18:33 | 59.87043 | 29.75109 | 3937 ft | 198 kts | 96° |
| 2026-05-08 18:34 | 59.86810 | 29.77785 | 3682 ft | 194 kts | 96° |
| 2026-05-08 18:34 | 59.86584 | 29.80372 | 3461 ft | 185 kts | 96° |
| 2026-05-08 18:34 | 59.86364 | 29.82892 | 3211 ft | 186 kts | 96° |
| 2026-05-08 18:34 | 59.86149 | 29.85352 | 2967 ft | 181 kts | 96° |
| 2026-05-08 18:35 | 59.85934 | 29.87813 | 2677 ft | 179 kts | 96° |
| 2026-05-08 18:35 | 59.85722 | 29.90235 | 2399 ft | 175 kts | 97° |
| 2026-05-08 18:35 | 59.85511 | 29.92568 | 2125 ft | 169 kts | 98° |
| 2026-05-08 18:35 | 59.85266 | 29.94891 | 1968 ft | 176 kts | 99° |
| 2026-05-08 18:36 | 59.84992 | 29.97181 | 1989 ft | 164 kts | 102° |
| 2026-05-08 18:36 | 59.84697 | 29.99394 | 1996 ft | 168 kts | 103° |
| 2026-05-08 18:36 | 59.84364 | 30.01676 | 2008 ft | 174 kts | 103° |
| 2026-05-08 18:36 | 59.84032 | 30.03878 | 2023 ft | 165 kts | 104° |
| 2026-05-08 18:37 | 59.83716 | 30.05959 | 1997 ft | 146 kts | 103° |
| 2026-05-08 18:37 | 59.83443 | 30.07769 | 1861 ft | 144 kts | 103° |
| 2026-05-08 18:37 | 59.83175 | 30.09635 | 1648 ft | 136 kts | 103° |
| 2026-05-08 18:37 | 59.82916 | 30.11461 | 1455 ft | 137 kts | 104° |
| 2026-05-08 18:38 | 59.82673 | 30.13235 | 1280 ft | 133 kts | 105° |
| 2026-05-08 18:38 | 59.82403 | 30.14999 | 1099 ft | 135 kts | 105° |
| 2026-05-08 18:38 | 59.82117 | 30.16782 | 932 ft | 136 kts | 106° |
| 2026-05-08 18:38 | 59.81865 | 30.18580 | 725 ft | 135 kts | 103° |
| 2026-05-08 18:39 | 59.81599 | 30.20328 | 578 ft | 133 kts | 105° |
| 2026-05-08 18:39 | 59.81330 | 30.22064 | 402 ft | 132 kts | 104° |
| 2026-05-08 18:39 | 59.81077 | 30.23802 | 241 ft | 132 kts | 103° |
| 2026-05-08 18:39 | 59.80822 | 30.25535 | 100 ft | 129 kts | 103° |
| 2026-05-08 18:40 | 59.80584 | 30.27169 | 195 ft | 133 kts | 103° |
| 2026-05-08 18:40 | 59.80308 | 30.29122 | 822 ft | 169 kts | 102° |
| 2026-05-08 18:40 | 59.79976 | 30.31619 | 1428 ft | 214 kts | 98° |
| 2026-05-08 18:40 | 59.79761 | 30.34349 | 2277 ft | 186 kts | 95° |
| 2026-05-08 18:41 | 59.79577 | 30.36799 | 2508 ft | 181 kts | 97° |
| 2026-05-08 18:41 | 59.79160 | 30.39381 | 2526 ft | 219 kts | 111° |
| 2026-05-08 18:41 | 59.78113 | 30.41875 | 2479 ft | 239 kts | 142° |
| 2026-05-08 18:41 | 59.76543 | 30.43096 | 2447 ft | 253 kts | 172° |
| 2026-05-08 18:42 | 59.74817 | 30.42740 | 2452 ft | 257 kts | 201° |
| 2026-05-08 18:42 | 59.73284 | 30.40780 | 2453 ft | 264 kts | 225° |
| 2026-05-08 18:42 | 59.72324 | 30.37717 | 2449 ft | 260 kts | 253° |
| 2026-05-08 18:42 | 59.72110 | 30.34367 | 2440 ft | 238 kts | 277° |
| 2026-05-08 18:43 | 59.72330 | 30.31138 | 2457 ft | 239 kts | 279° |
| 2026-05-08 18:43 | 59.72573 | 30.27796 | 2452 ft | 248 kts | 279° |
| 2026-05-08 18:43 | 59.72818 | 30.24416 | 2478 ft | 254 kts | 279° |
| 2026-05-08 18:43 | 59.73221 | 30.20966 | 2480 ft | 258 kts | 288° |
| 2026-05-08 18:44 | 59.73725 | 30.17495 | 2449 ft | 260 kts | 287° |
| 2026-05-08 18:44 | 59.74200 | 30.14156 | 2437 ft | 253 kts | 286° |
| 2026-05-08 18:44 | 59.74660 | 30.10772 | 2449 ft | 250 kts | 286° |
| 2026-05-08 18:44 | 59.75105 | 30.07490 | 2475 ft | 241 kts | 286° |
| 2026-05-08 18:45 | 59.75534 | 30.04258 | 2548 ft | 244 kts | 285° |
| 2026-05-08 18:45 | 59.75934 | 30.01200 | 2530 ft | 241 kts | 286° |
| 2026-05-08 18:45 | 59.76381 | 29.97873 | 2504 ft | 241 kts | 287° |
| 2026-05-08 18:45 | 59.76820 | 29.94640 | 2493 ft | 241 kts | 287° |
| 2026-05-08 18:46 | 59.77248 | 29.91450 | 2497 ft | 242 kts | 286° |
| 2026-05-08 18:46 | 59.77678 | 29.88219 | 2491 ft | 244 kts | 286° |
| 2026-05-08 18:46 | 59.78107 | 29.84943 | 2488 ft | 248 kts | 285° |
| 2026-05-08 18:46 | 59.78556 | 29.81655 | 2498 ft | 245 kts | 292° |
| 2026-05-08 18:47 | 59.79544 | 29.78981 | 2513 ft | 239 kts | 324° |
| 2026-05-08 18:47 | 59.81027 | 29.77606 | 2502 ft | 236 kts | 350° |
| 2026-05-08 18:47 | 59.82619 | 29.77732 | 2499 ft | 234 kts | 16° |
| 2026-05-08 18:47 | 59.84011 | 29.79348 | 2503 ft | 231 kts | 44° |
| 2026-05-08 18:48 | 59.84830 | 29.81959 | 2532 ft | 222 kts | 70° |
| 2026-05-08 18:48 | 59.85049 | 29.84975 | 2554 ft | 222 kts | 83° |
| 2026-05-08 18:48 | 59.85138 | 29.88002 | 2556 ft | 214 kts | 83° |
| 2026-05-08 18:48 | 59.85214 | 29.90830 | 2532 ft | 198 kts | 83° |
| 2026-05-08 18:49 | 59.85277 | 29.93454 | 2493 ft | 183 kts | 84° |
| 2026-05-08 18:49 | 59.85248 | 29.95904 | 2459 ft | 184 kts | 98° |
| 2026-05-08 18:49 | 59.84909 | 29.98346 | 2320 ft | 181 kts | 102° |
| 2026-05-08 18:49 | 59.84565 | 30.00632 | 2125 ft | 169 kts | 103° |
| 2026-05-08 18:50 | 59.84217 | 30.02822 | 2021 ft | 171 kts | 104° |
| 2026-05-08 18:50 | 59.83877 | 30.05002 | 1946 ft | 161 kts | 103° |
| 2026-05-08 18:50 | 59.83551 | 30.07099 | 1950 ft | 163 kts | 103° |
| 2026-05-08 18:50 | 59.83232 | 30.09220 | 1727 ft | 159 kts | 102° |
| 2026-05-08 18:51 | 59.82939 | 30.11254 | 1471 ft | 150 kts | 103° |
| 2026-05-08 18:51 | 59.82671 | 30.13163 | 1269 ft | 139 kts | 104° |
| 2026-05-08 18:51 | 59.82390 | 30.15008 | 1101 ft | 144 kts | 104° |
| 2026-05-08 18:51 | 59.82133 | 30.16834 | 900 ft | 137 kts | 104° |
| 2026-05-08 18:52 | 59.81861 | 30.18561 | 725 ft | 135 kts | 105° |
| 2026-05-08 18:52 | 59.81594 | 30.20330 | 545 ft | 134 kts | 103° |
| 2026-05-08 18:52 | 59.81334 | 30.22086 | 382 ft | 134 kts | 104° |
| 2026-05-08 18:52 | 59.81072 | 30.23848 | 214 ft | 135 kts | 103° |
| 2026-05-08 18:53 | 59.80822 | 30.25562 | 89 ft | 126 kts | 105° |
| 2026-05-08 18:53 | 59.80604 | 30.27025 | 86 ft | 91 kts | 107° |
| 2026-05-08 18:53 | 59.80461 | 30.27977 | 86 ft | 55 kts | 105° |
| 2026-05-08 18:53 | 59.80373 | 30.28570 | 86 ft | 34 kts | 103° |
| 2026-05-08 18:54 | 59.80336 | 30.28815 | 86 ft | 5 kts | 109° |
| 2026-05-08 18:54 | 59.80312 | 30.28876 | 86 ft | 6 kts | 167° |
| 2026-05-08 18:54 | 59.80268 | 30.28817 | 86 ft | 9 kts | 227° |
| 2026-05-08 18:54 | 59.80225 | 30.28721 | 86 ft | 9 kts | 228° |
| 2026-05-08 18:55 | 59.80207 | 30.28678 | 86 ft | 0 kts | 230° |
| 2026-05-08 18:56 | 59.80206 | 30.28676 | 86 ft | 1 kts | 229° |
| 2026-05-08 18:56 | 59.80195 | 30.28650 | 86 ft | 3 kts | 228° |
| 2026-05-08 18:56 | 59.80172 | 30.28598 | 86 ft | 6 kts | 233° |
| 2026-05-08 18:56 | 59.80155 | 30.28493 | 86 ft | 9 kts | 277° |
| 2026-05-08 18:57 | 59.80174 | 30.28355 | 86 ft | 10 kts | 284° |
| 2026-05-08 18:57 | 59.80186 | 30.28273 | 86 ft | 7 kts | 284° |
| 2026-05-08 18:57 | 59.80208 | 30.28127 | 86 ft | 8 kts | 286° |
| 2026-05-08 18:57 | 59.80226 | 30.28006 | 86 ft | 9 kts | 287° |
| 2026-05-08 18:58 | 59.80245 | 30.27879 | 86 ft | 10 kts | 287° |
| 2026-05-08 18:58 | 59.80265 | 30.27746 | 86 ft | 10 kts | 287° |
| 2026-05-08 18:58 | 59.80286 | 30.27604 | 86 ft | 11 kts | 286° |
| 2026-05-08 18:58 | 59.80307 | 30.27461 | 86 ft | 10 kts | 284° |
| 2026-05-08 18:59 | 59.80328 | 30.27323 | 86 ft | 10 kts | 287° |
| 2026-05-08 18:59 | 59.80349 | 30.27181 | 86 ft | 11 kts | 286° |
| 2026-05-08 18:59 | 59.80371 | 30.27032 | 86 ft | 10 kts | 287° |
| 2026-05-08 18:59 | 59.80389 | 30.26911 | 86 ft | 6 kts | 283° |
| 2026-05-08 19:00 | 59.80387 | 30.26874 | 86 ft | 3 kts | 230° |
| 2026-05-08 19:00 | 59.80334 | 30.26837 | 86 ft | 7 kts | 192° |
| 2026-05-08 19:00 | 59.80282 | 30.26806 | 86 ft | 8 kts | 199° |
| 2026-05-08 19:00 | 59.80224 | 30.26770 | 86 ft | 9 kts | 195° |
| 2026-05-08 19:01 | 59.80154 | 30.26730 | 86 ft | 11 kts | 196° |
| 2026-05-08 19:01 | 59.80080 | 30.26686 | 86 ft | 11 kts | 197° |
| 2026-05-08 19:01 | 59.80003 | 30.26641 | 86 ft | 11 kts | 197° |
| 2026-05-08 19:01 | 59.79923 | 30.26594 | 86 ft | 11 kts | 198° |
| 2026-05-08 19:02 | 59.79859 | 30.26556 | 86 ft | 4 kts | 197° |
| 2026-05-08 19:02 | 59.79838 | 30.26566 | 86 ft | 4 kts | 126° |
| 2026-05-08 19:02 | 59.79826 | 30.26638 | 86 ft | 5 kts | 106° |
| 2026-05-08 19:02 | 59.79823 | 30.26659 | 86 ft | 1 kts | 105° |
| 2026-05-08 19:03 | 59.79823 | 30.26660 | 86 ft | 0 kts | 105° |